Time;durP1;ratioP1;P1;durP2;ratioP2;P2;SDS_P1;SDS_P2;PMS_P1;PMS_P2;Temp;Humidity;BMP_temperature;BMP_pressure;BME280_temperature;BME280_humidity;BME280_pressure;Samples;Min_cycle;Max_cycle;Signal;HPM_P1;HPM_P2
2024/04/13 00:01:27;;;;;;;3.22;1.08;;;;;;;;;;5483310;26;20202;-52
2024/04/13 00:03:52;;;;;;;3.95;1.00;;;;;;;;;;5484098;26;20352;-48
2024/04/13 00:06:18;;;;;;;2.88;1.08;;;;;;;;;;5483054;26;20013;-59
2024/04/13 00:08:43;;;;;;;5.38;1.38;;;;;;;;;;5486422;26;20074;-55
2024/04/13 00:11:09;;;;;;;2.92;1.00;;;;;;;;;;5487059;26;20406;-60
2024/04/13 00:13:36;;;;;;;2.95;1.17;;;;;;;;;;5485861;26;20477;-55
2024/04/13 00:16:01;;;;;;;3.67;0.98;;;;;;;;;;5486539;26;20008;-56
2024/04/13 00:18:27;;;;;;;2.28;0.80;;;;;;;;;;5485950;26;19994;-49
2024/04/13 00:20:52;;;;;;;3.28;0.93;;;;;;;;;;5485114;26;19994;-51
2024/04/13 00:23:17;;;;;;;3.33;0.90;;;;;;;;;;5486408;26;19994;-55
2024/04/13 00:25:44;;;;;;;2.75;1.00;;;;;;;;;;5486678;26;20009;-52
2024/04/13 00:28:10;;;;;;;5.47;1.30;;;;;;;;;;5485995;26;20387;-52
2024/04/13 00:30:36;;;;;;;2.83;1.20;;;;;;;;;;5485888;26;20009;-49
2024/04/13 00:33:01;;;;;;;3.10;1.02;;;;;;;;;;5484382;26;20002;-50
2024/04/13 00:35:27;;;;;;;2.08;0.88;;;;;;;;;;5486202;26;19998;-52
2024/04/13 00:37:52;;;;;;;1.73;0.80;;;;;;;;;;5485794;26;20341;-56
2024/04/13 00:40:17;;;;;;;4.20;0.93;;;;;;;;;;5485806;26;20075;-51
2024/04/13 00:42:43;;;;;;;1.52;0.80;;;;;;;;;;5486303;26;20063;-52
2024/04/13 00:45:08;;;;;;;2.70;1.02;;;;;;;;;;5485112;26;20002;-49
2024/04/13 00:47:34;;;;;;;2.92;1.02;;;;;;;;;;5486340;26;19999;-52
2024/04/13 00:50:02;;;;;;;2.42;1.10;;;;;;;;;;5485591;26;20002;-52
2024/04/13 00:52:28;;;;;;;2.40;1.00;;;;;;;;;;5479372;26;20014;-50
2024/04/13 00:54:55;;;;;;;4.43;1.20;;;;;;;;;;5485814;26;20074;-51
2024/04/13 00:57:22;;;;;;;2.65;0.90;;;;;;;;;;5478716;26;20013;-54
2024/04/13 00:59:50;;;;;;;3.50;1.00;;;;;;;;;;5485418;26;20006;-48
2024/04/13 01:02:18;;;;;;;3.25;0.93;;;;;;;;;;5485145;26;19998;-50
2024/04/13 01:04:48;;;;;;;3.03;1.10;;;;;;;;;;5484490;26;20009;-51
2024/04/13 01:07:16;;;;;;;2.92;1.00;;;;;;;;;;5486051;26;20017;-49
2024/04/13 01:09:45;;;;;;;2.20;1.10;;;;;;;;;;5473911;26;19998;-51
2024/04/13 01:12:11;;;;;;;4.05;1.00;;;;;;;;;;5485396;26;20294;-50
2024/04/13 01:14:37;;;;;;;3.22;1.00;;;;;;;;;;5483671;26;20028;-48
2024/04/13 01:17:02;;;;;;;3.15;0.82;;;;;;;;;;5482592;26;19994;-50
2024/04/13 01:19:27;;;;;;;2.65;0.90;;;;;;;;;;5485590;26;20006;-53
2024/04/13 01:21:53;;;;;;;2.75;0.90;;;;;;;;;;5485485;26;19999;-56
2024/04/13 01:24:20;;;;;;;3.42;1.20;;;;;;;;;;5484839;26;20012;-49
2024/04/13 01:26:48;;;;;;;2.13;0.93;;;;;;;;;;5485505;26;19998;-53
2024/04/13 01:29:13;;;;;;;2.20;0.93;;;;;;;;;;5485536;26;20051;-53
2024/04/13 01:31:38;;;;;;;2.53;0.88;;;;;;;;;;5484703;26;20329;-53
2024/04/13 01:34:04;;;;;;;2.10;0.88;;;;;;;;;;5485453;26;20488;-51
2024/04/13 01:36:40;;;;;;;3.75;1.10;;;;;;;;;;5485624;26;20299;-51
2024/04/13 01:39:10;;;;;;;3.25;1.10;;;;;;;;;;5484818;26;20009;-56
2024/04/13 01:41:45;;;;;;;2.10;0.88;;;;;;;;;;5482152;26;20038;-53
2024/04/13 01:44:11;;;;;;;3.40;1.00;;;;;;;;;;5458031;26;20686;-51
2024/04/13 01:46:37;;;;;;;3.47;1.13;;;;;;;;;;5476870;26;19998;-53
2024/04/13 01:49:05;;;;;;;3.00;1.23;;;;;;;;;;5483780;26;20510;-50
2024/04/13 01:51:31;;;;;;;3.13;1.05;;;;;;;;;;5485268;26;20023;-54
2024/04/13 01:53:57;;;;;;;2.53;1.27;;;;;;;;;;5485377;26;20311;-52
2024/04/13 01:56:22;;;;;;;3.13;1.10;;;;;;;;;;5484294;26;20067;-50
2024/04/13 01:58:48;;;;;;;2.30;0.95;;;;;;;;;;5484545;26;19998;-52
2024/04/13 02:01:13;;;;;;;2.30;0.90;;;;;;;;;;5484590;26;20020;-53
2024/04/13 02:03:38;;;;;;;3.63;1.20;;;;;;;;;;5483408;26;20012;-50
2024/04/13 02:06:04;;;;;;;2.13;0.93;;;;;;;;;;5484839;26;20261;-51
2024/04/13 02:08:32;;;;;;;2.95;1.00;;;;;;;;;;5484940;26;20002;-52
2024/04/13 02:10:58;;;;;;;4.55;1.25;;;;;;;;;;5476777;26;20011;-52
2024/04/13 02:13:24;;;;;;;2.58;1.00;;;;;;;;;;5472058;26;20014;-52
2024/04/13 02:15:50;;;;;;;2.78;0.82;;;;;;;;;;5484852;26;20072;-54
2024/04/13 02:18:17;;;;;;;5.38;1.00;;;;;;;;;;5484729;26;20721;-51
2024/04/13 02:20:43;;;;;;;4.68;1.75;;;;;;;;;;5484360;26;20672;-51
2024/04/13 02:23:09;;;;;;;2.15;0.80;;;;;;;;;;5483959;26;20152;-51
2024/04/13 02:25:36;;;;;;;2.05;0.88;;;;;;;;;;5485088;26;20006;-50
2024/04/13 02:28:02;;;;;;;3.05;0.98;;;;;;;;;;5481331;26;20006;-50
2024/04/13 02:30:28;;;;;;;2.72;1.02;;;;;;;;;;5484473;26;19998;-50
2024/04/13 02:32:53;;;;;;;3.40;1.17;;;;;;;;;;5484288;26;20702;-52
2024/04/13 02:35:19;;;;;;;2.42;0.93;;;;;;;;;;5483834;26;20014;-53
2024/04/13 02:37:44;;;;;;;5.47;1.00;;;;;;;;;;5484448;26;20002;-50
2024/04/13 02:40:09;;;;;;;3.97;1.15;;;;;;;;;;5484094;26;20005;-50
2024/04/13 02:42:36;;;;;;;3.20;1.08;;;;;;;;;;5484462;26;20380;-51
2024/04/13 02:45:02;;;;;;;3.78;1.40;;;;;;;;;;5477259;26;20079;-50
2024/04/13 02:47:27;;;;;;;3.30;1.00;;;;;;;;;;5484681;26;20014;-53
2024/04/13 02:49:53;;;;;;;2.65;1.10;;;;;;;;;;5484388;26;20758;-54
2024/04/13 02:52:20;;;;;;;2.88;0.95;;;;;;;;;;5483839;26;20013;-52
2024/04/13 02:54:45;;;;;;;2.85;1.00;;;;;;;;;;5485382;26;20518;-52
2024/04/13 02:57:12;;;;;;;2.80;1.05;;;;;;;;;;5484203;26;20002;-50
2024/04/13 02:59:38;;;;;;;2.78;1.00;;;;;;;;;;5483672;26;20322;-53
2024/04/13 03:02:04;;;;;;;3.58;1.02;;;;;;;;;;5484041;26;20083;-50
2024/04/13 03:04:31;;;;;;;2.08;0.93;;;;;;;;;;5482040;26;19998;-52
2024/04/13 03:06:57;;;;;;;2.08;0.98;;;;;;;;;;5483775;26;19998;-53
2024/04/13 03:09:23;;;;;;;2.55;0.90;;;;;;;;;;5476122;26;20716;-54
2024/04/13 03:11:48;;;;;;;2.83;1.10;;;;;;;;;;5484357;26;20009;-50
2024/04/13 03:14:13;;;;;;;2.47;1.15;;;;;;;;;;5483689;26;20006;-59
2024/04/13 03:16:39;;;;;;;1.73;0.80;;;;;;;;;;5483112;26;20009;-59
2024/04/13 03:19:04;;;;;;;2.05;0.80;;;;;;;;;;5479958;26;20006;-57
2024/04/13 03:21:30;;;;;;;2.42;0.85;;;;;;;;;;5483730;26;19998;-61
2024/04/13 03:23:56;;;;;;;4.00;1.23;;;;;;;;;;5483479;26;20017;-58
2024/04/13 03:26:23;;;;;;;2.95;1.10;;;;;;;;;;5482212;26;19998;-51
2024/04/13 03:28:49;;;;;;;2.78;1.05;;;;;;;;;;5483832;26;19998;-48
2024/04/13 03:31:14;;;;;;;4.38;1.00;;;;;;;;;;5483140;26;20117;-51
2024/04/13 03:33:40;;;;;;;5.88;1.00;;;;;;;;;;5483503;26;19998;-50
2024/04/13 03:36:05;;;;;;;3.30;1.10;;;;;;;;;;5483192;26;20017;-51
2024/04/13 03:38:31;;;;;;;2.35;0.90;;;;;;;;;;5481417;26;19998;-55
2024/04/13 03:41:05;;;;;;;1.38;0.80;;;;;;;;;;5478578;26;20009;-51
2024/04/13 03:43:31;;;;;;;8.27;1.05;;;;;;;;;;5481493;26;20337;-50
2024/04/13 03:45:57;;;;;;;2.50;1.10;;;;;;;;;;5444968;26;20426;-51
2024/04/13 03:48:22;;;;;;;4.50;1.02;;;;;;;;;;5468500;26;20026;-50
2024/04/13 03:50:47;;;;;;;2.08;0.88;;;;;;;;;;5483411;26;20123;-49
2024/04/13 03:53:13;;;;;;;2.58;1.00;;;;;;;;;;5483304;26;20391;-48
2024/04/13 03:55:38;;;;;;;4.50;0.90;;;;;;;;;;5482461;26;20005;-51
2024/04/13 03:58:04;;;;;;;2.30;0.98;;;;;;;;;;5483199;26;20016;-48
2024/04/13 04:00:30;;;;;;;2.30;0.90;;;;;;;;;;5483076;26;20004;-48
2024/04/13 04:02:56;;;;;;;3.50;1.00;;;;;;;;;;5482632;26;20559;-51
2024/04/13 04:05:22;;;;;;;2.33;0.95;;;;;;;;;;5482979;26;20005;-52
2024/04/13 04:07:47;;;;;;;5.15;0.93;;;;;;;;;;5482915;26;20018;-53
2024/04/13 04:10:12;;;;;;;5.45;1.00;;;;;;;;;;5482625;26;20068;-50
2024/04/13 04:12:39;;;;;;;5.20;0.90;;;;;;;;;;5482839;26;20026;-51
2024/04/13 04:15:05;;;;;;;1.77;0.90;;;;;;;;;;5482885;26;20354;-51
2024/04/13 04:17:30;;;;;;;2.45;0.95;;;;;;;;;;5481097;26;20005;-49
2024/04/13 04:19:56;;;;;;;2.63;1.00;;;;;;;;;;5482067;26;19999;-51
2024/04/13 04:22:21;;;;;;;4.30;0.90;;;;;;;;;;5482950;26;20005;-52
2024/04/13 04:24:46;;;;;;;1.60;0.77;;;;;;;;;;5482570;26;20012;-51
2024/04/13 04:27:12;;;;;;;5.25;0.90;;;;;;;;;;5481708;26;20010;-48
2024/04/13 04:29:37;;;;;;;2.15;1.00;;;;;;;;;;5482541;26;20276;-51
2024/04/13 04:32:02;;;;;;;2.22;0.75;;;;;;;;;;5482353;26;19995;-51
2024/04/13 04:34:29;;;;;;;5.20;0.90;;;;;;;;;;5481923;26;19994;-48
2024/04/13 04:36:55;;;;;;;2.30;1.05;;;;;;;;;;5481615;26;20026;-50
2024/04/13 04:39:20;;;;;;;2.38;0.90;;;;;;;;;;5482124;26;20063;-51
2024/04/13 04:41:45;;;;;;;6.20;1.00;;;;;;;;;;5482153;26;20418;-51
2024/04/13 04:44:11;;;;;;;2.38;1.27;;;;;;;;;;5482082;26;20002;-51
2024/04/13 04:46:36;;;;;;;2.83;0.70;;;;;;;;;;5482824;26;20002;-51
2024/04/13 04:49:04;;;;;;;2.55;0.90;;;;;;;;;;5482005;26;20389;-48
2024/04/13 04:51:29;;;;;;;2.38;0.80;;;;;;;;;;5484777;26;20009;-53
2024/04/13 04:53:55;;;;;;;2.03;0.80;;;;;;;;;;5486250;26;19990;-49
2024/04/13 04:56:20;;;;;;;7.15;1.20;;;;;;;;;;5485697;26;20005;-52
2024/04/13 04:58:45;;;;;;;2.03;0.95;;;;;;;;;;5484998;26;20078;-52
2024/04/13 05:01:11;;;;;;;2.15;0.80;;;;;;;;;;5481784;26;20005;-49
2024/04/13 05:03:36;;;;;;;2.30;0.90;;;;;;;;;;5485847;26;19990;-51
2024/04/13 05:06:02;;;;;;;2.70;0.88;;;;;;;;;;5485477;26;20399;-49
2024/04/13 05:08:27;;;;;;;2.28;0.98;;;;;;;;;;5484772;26;19998;-54
2024/04/13 05:10:52;;;;;;;1.77;0.80;;;;;;;;;;5486045;26;20039;-51
2024/04/13 05:13:19;;;;;;;1.75;0.88;;;;;;;;;;5486092;26;19998;-52
2024/04/13 05:15:44;;;;;;;2.28;1.00;;;;;;;;;;5485249;26;20006;-52
2024/04/13 05:18:09;;;;;;;3.08;0.98;;;;;;;;;;5485395;26;20440;-52
2024/04/13 05:20:36;;;;;;;1.42;0.75;;;;;;;;;;5485404;26;19997;-49
2024/04/13 05:23:05;;;;;;;2.22;0.93;;;;;;;;;;5485073;26;19990;-48
2024/04/13 05:25:31;;;;;;;1.58;0.70;;;;;;;;;;5485663;26;20079;-48
2024/04/13 05:27:56;;;;;;;2.88;0.82;;;;;;;;;;5484088;26;20014;-50
2024/04/13 05:30:22;;;;;;;2.03;0.82;;;;;;;;;;5483958;26;20002;-50
2024/04/13 05:32:47;;;;;;;2.58;0.85;;;;;;;;;;5483876;26;19995;-51
2024/04/13 05:35:15;;;;;;;2.00;0.80;;;;;;;;;;5485179;26;20457;-49
2024/04/13 05:37:40;;;;;;;2.15;0.90;;;;;;;;;;5453450;26;20434;-56
2024/04/13 05:40:06;;;;;;;2.33;1.00;;;;;;;;;;5484641;26;20013;-49
2024/04/13 05:42:31;;;;;;;1.65;0.73;;;;;;;;;;5485230;26;19998;-51
2024/04/13 05:44:58;;;;;;;2.30;0.73;;;;;;;;;;5485392;26;20006;-50
2024/04/13 05:47:23;;;;;;;1.80;0.80;;;;;;;;;;5481886;26;19994;-53
2024/04/13 05:49:50;;;;;;;2.55;0.82;;;;;;;;;;5482087;26;20452;-50
2024/04/13 05:52:15;;;;;;;4.13;0.95;;;;;;;;;;5485253;26;20002;-52
2024/04/13 05:54:41;;;;;;;2.17;1.00;;;;;;;;;;5484527;26;20379;-50
2024/04/13 05:57:07;;;;;;;1.98;0.85;;;;;;;;;;5484906;26;19998;-52
2024/04/13 05:59:32;;;;;;;2.17;0.80;;;;;;;;;;5484706;26;19994;-54
2024/04/13 06:01:57;;;;;;;3.53;0.93;;;;;;;;;;5478815;26;20373;-57
2024/04/13 06:04:23;;;;;;;2.15;0.90;;;;;;;;;;5485075;26;19998;-58
2024/04/13 06:06:50;;;;;;;2.40;0.95;;;;;;;;;;5485062;26;20376;-59
2024/04/13 06:09:15;;;;;;;2.13;0.80;;;;;;;;;;5488310;26;19998;-59
2024/04/13 06:11:41;;;;;;;1.65;0.75;;;;;;;;;;5484105;26;20020;-57
2024/04/13 06:14:06;;;;;;;2.55;0.88;;;;;;;;;;5484922;26;20033;-57
2024/04/13 06:16:33;;;;;;;2.60;0.93;;;;;;;;;;5484636;26;20002;-58
2024/04/13 06:18:58;;;;;;;2.20;1.00;;;;;;;;;;5452009;26;20002;-58
2024/04/13 06:21:24;;;;;;;1.67;0.73;;;;;;;;;;5484424;26;20484;-50
2024/04/13 06:23:50;;;;;;;3.05;1.20;;;;;;;;;;5479092;26;20002;-49
2024/04/13 06:26:15;;;;;;;2.45;1.00;;;;;;;;;;5483852;26;19994;-50
2024/04/13 06:28:41;;;;;;;2.20;0.85;;;;;;;;;;5484632;26;20393;-49
2024/04/13 06:31:06;;;;;;;2.53;0.90;;;;;;;;;;5484636;26;20005;-48
2024/04/13 06:33:33;;;;;;;4.35;1.10;;;;;;;;;;5483988;26;19994;-49
2024/04/13 06:35:58;;;;;;;1.80;0.80;;;;;;;;;;5484245;26;20010;-51
2024/04/13 06:38:26;;;;;;;2.53;0.82;;;;;;;;;;5484165;26;20006;-52
2024/04/13 06:40:54;;;;;;;1.85;0.95;;;;;;;;;;5482339;26;19998;-52
2024/04/13 06:43:20;;;;;;;4.07;0.70;;;;;;;;;;5483965;26;20046;-48
2024/04/13 06:45:46;;;;;;;2.58;1.10;;;;;;;;;;5483817;26;20009;-55
2024/04/13 06:48:11;;;;;;;2.25;0.90;;;;;;;;;;5484318;26;19999;-52
2024/04/13 06:50:37;;;;;;;2.40;0.75;;;;;;;;;;5483754;26;20048;-49
2024/04/13 06:53:02;;;;;;;2.58;0.85;;;;;;;;;;5483540;26;20002;-51
2024/04/13 06:55:28;;;;;;;2.13;0.90;;;;;;;;;;5484142;26;20013;-50
2024/04/13 06:57:53;;;;;;;2.50;0.90;;;;;;;;;;5483719;26;19994;-52
2024/04/13 07:00:19;;;;;;;2.10;0.90;;;;;;;;;;5484258;26;20001;-60
2024/04/13 07:02:45;;;;;;;2.20;0.88;;;;;;;;;;5483666;26;20074;-60
2024/04/13 07:05:10;;;;;;;3.25;1.00;;;;;;;;;;5483606;26;20009;-60
2024/04/13 07:07:36;;;;;;;2.75;1.20;;;;;;;;;;5479193;26;20002;-59
2024/04/13 07:10:02;;;;;;;6.38;0.93;;;;;;;;;;5484086;26;20000;-60
2024/04/13 07:12:28;;;;;;;7.32;1.00;;;;;;;;;;5482980;26;20365;-51
2024/04/13 07:14:53;;;;;;;2.95;0.80;;;;;;;;;;5482950;26;19994;-54
2024/04/13 07:17:19;;;;;;;3.00;1.02;;;;;;;;;;5471898;26;20438;-50
2024/04/13 07:19:44;;;;;;;2.08;0.90;;;;;;;;;;5480267;26;20034;-54
2024/04/13 07:22:09;;;;;;;5.40;1.10;;;;;;;;;;5482407;26;20846;-53
2024/04/13 07:24:37;;;;;;;3.75;1.08;;;;;;;;;;5483450;26;20379;-53
2024/04/13 07:27:02;;;;;;;1.83;0.80;;;;;;;;;;5482917;26;20009;-55
2024/04/13 07:29:27;;;;;;;2.17;1.00;;;;;;;;;;5482516;26;20005;-51
2024/04/13 07:31:53;;;;;;;2.38;0.80;;;;;;;;;;5484042;26;20013;-52
2024/04/13 07:34:18;;;;;;;3.22;0.98;;;;;;;;;;5482537;26;20026;-54
2024/04/13 07:36:46;;;;;;;2.35;0.88;;;;;;;;;;5483214;26;20421;-52
2024/04/13 07:39:12;;;;;;;3.20;1.02;;;;;;;;;;5481752;26;19998;-53
2024/04/13 07:41:38;;;;;;;5.35;0.90;;;;;;;;;;5483601;26;19993;-52
2024/04/13 07:44:03;;;;;;;3.22;0.80;;;;;;;;;;5481244;26;19998;-52
2024/04/13 07:46:28;;;;;;;4.13;0.90;;;;;;;;;;5482971;26;20009;-53
2024/04/13 07:48:54;;;;;;;2.22;0.82;;;;;;;;;;5482546;26;19994;-51
2024/04/13 07:51:20;;;;;;;4.50;1.45;;;;;;;;;;5483275;26;19994;-53
2024/04/13 07:53:46;;;;;;;2.10;0.77;;;;;;;;;;5480433;26;20047;-51
2024/04/13 07:56:11;;;;;;;2.33;1.00;;;;;;;;;;5483314;26;19990;-53
2024/04/13 07:58:36;;;;;;;4.07;0.95;;;;;;;;;;5482868;26;20078;-58
2024/04/13 08:01:03;;;;;;;4.15;0.90;;;;;;;;;;5458896;26;20010;-59
2024/04/13 08:03:28;;;;;;;3.13;0.90;;;;;;;;;;5481736;26;20006;-60
2024/04/13 08:05:54;;;;;;;3.92;0.85;;;;;;;;;;5482060;26;21061;-59
2024/04/13 08:08:19;;;;;;;4.68;1.08;;;;;;;;;;5481183;26;19998;-61
2024/04/13 08:10:45;;;;;;;4.93;1.00;;;;;;;;;;5481675;26;19990;-60
2024/04/13 08:13:10;;;;;;;3.20;0.93;;;;;;;;;;5475930;26;20021;-51
2024/04/13 08:15:39;;;;;;;2.08;1.02;;;;;;;;;;5471923;26;20013;-51
2024/04/13 08:18:05;;;;;;;4.18;1.00;;;;;;;;;;5469537;26;20013;-61
2024/04/13 08:20:30;;;;;;;3.80;0.88;;;;;;;;;;5481779;26;20002;-60
2024/04/13 08:22:56;;;;;;;2.83;1.00;;;;;;;;;;5476046;26;20055;-55
2024/04/13 08:25:21;;;;;;;1.83;0.80;;;;;;;;;;5478074;26;20066;-63
2024/04/13 08:27:46;;;;;;;3.65;1.10;;;;;;;;;;5485056;26;19990;-61
2024/04/13 08:30:12;;;;;;;1.92;0.70;;;;;;;;;;5479818;26;20006;-52
2024/04/13 08:32:38;;;;;;;6.50;1.05;;;;;;;;;;5483379;26;20423;-51
2024/04/13 08:35:07;;;;;;;2.00;1.08;;;;;;;;;;5484371;26;20430;-53
2024/04/13 08:37:32;;;;;;;3.83;0.80;;;;;;;;;;5483799;26;19998;-50
2024/04/13 08:39:57;;;;;;;1.75;0.60;;;;;;;;;;5484667;26;20627;-53
2024/04/13 08:42:31;;;;;;;1.90;0.80;;;;;;;;;;5484687;26;20103;-61
2024/04/13 08:44:56;;;;;;;;;;;;;;;;;;5482500;26;19994;-58
2024/04/13 08:47:22;;;;;;;2.40;0.73;;;;;;;;;;5484264;26;19924;-60
2024/04/13 08:49:48;;;;;;;2.35;1.10;;;;;;;;;;5482006;26;20223;-59
2024/04/13 08:52:15;;;;;;;4.25;1.00;;;;;;;;;;5480456;26;20035;-62
2024/04/13 08:54:41;;;;;;;1.70;0.90;;;;;;;;;;5483053;26;20473;-62
2024/04/13 08:57:07;;;;;;;1.42;0.77;;;;;;;;;;5483346;26;20002;-50
2024/04/13 08:59:33;;;;;;;2.10;0.70;;;;;;;;;;5476373;26;20775;-47
2024/04/13 09:02:01;;;;;;;2.75;0.93;;;;;;;;;;5480228;26;19994;-57
2024/04/13 09:04:27;;;;;;;2.92;0.80;;;;;;;;;;5483954;26;20002;-59
2024/04/13 09:06:52;;;;;;;5.03;0.90;;;;;;;;;;5484067;26;20024;-59
2024/04/13 09:09:18;;;;;;;1.90;0.73;;;;;;;;;;5482803;26;20341;-60
2024/04/13 09:11:44;;;;;;;2.38;0.90;;;;;;;;;;5480145;26;19994;-57
2024/04/13 09:14:11;;;;;;;1.77;0.80;;;;;;;;;;5469640;26;19994;-50
2024/04/13 09:16:37;;;;;;;2.88;0.93;;;;;;;;;;5485156;26;20008;-49
2024/04/13 09:19:02;;;;;;;1.75;0.75;;;;;;;;;;5485610;26;20375;-50
2024/04/13 09:21:30;;;;;;;1.67;0.80;;;;;;;;;;5484913;26;19990;-49
2024/04/13 09:23:55;;;;;;;0.85;0.68;;;;;;;;;;5485561;26;20005;-51
2024/04/13 09:26:23;;;;;;;2.78;0.90;;;;;;;;;;5485411;26;19998;-51
2024/04/13 09:28:49;;;;;;;2.03;0.90;;;;;;;;;;5462951;26;20002;-51
2024/04/13 09:31:16;;;;;;;2.13;0.70;;;;;;;;;;5483912;26;20070;-51
2024/04/13 09:33:48;;;;;;;4.65;0.88;;;;;;;;;;5477824;26;20262;-48
2024/04/13 09:36:20;;;;;;;2.85;0.90;;;;;;;;;;5482929;26;20731;-51
2024/04/13 09:38:46;;;;;;;1.67;0.80;;;;;;;;;;5463939;26;20364;-51
2024/04/13 09:41:11;;;;;;;3.63;0.85;;;;;;;;;;5485009;26;19998;-51
2024/04/13 09:43:37;;;;;;;3.03;1.13;;;;;;;;;;5491522;26;20005;-58
2024/04/13 09:46:02;;;;;;;3.83;0.73;;;;;;;;;;5488485;26;20063;-60
2024/04/13 09:48:28;;;;;;;2.95;1.10;;;;;;;;;;5505388;25;20001;-57
2024/04/13 09:50:53;;;;;;;2.88;0.73;;;;;;;;;;5498439;26;20006;-59
2024/04/13 09:53:19;;;;;;;2.50;0.85;;;;;;;;;;5505995;25;19995;-58
2024/04/13 09:55:45;;;;;;;2.83;0.90;;;;;;;;;;5497742;25;20021;-60
2024/04/13 09:58:14;;;;;;;2.22;0.88;;;;;;;;;;5494169;26;20037;-60
2024/04/13 10:00:44;;;;;;;5.32;0.82;;;;;;;;;;5502801;26;20062;-59
2024/04/13 10:03:10;;;;;;;2.05;0.90;;;;;;;;;;5498462;26;20350;-60
2024/04/13 10:05:37;;;;;;;1.80;0.70;;;;;;;;;;5486567;26;20034;-60
2024/04/13 10:08:06;;;;;;;1.92;0.85;;;;;;;;;;5501290;26;19997;-59
2024/04/13 10:10:46;;;;;;;2.33;0.98;;;;;;;;;;5482850;26;20079;-55
2024/04/13 10:13:15;;;;;;;3.28;0.90;;;;;;;;;;5479922;26;20002;-50
2024/04/13 10:15:42;;;;;;;2.33;0.98;;;;;;;;;;5484345;26;20002;-52
2024/04/13 10:18:08;;;;;;;1.52;0.82;;;;;;;;;;5483834;26;20037;-54
2024/04/13 10:20:35;;;;;;;1.65;0.90;;;;;;;;;;5482912;26;20021;-49
2024/04/13 10:23:07;;;;;;;2.10;0.80;;;;;;;;;;5482932;26;20344;-53
2024/04/13 10:25:33;;;;;;;2.90;0.80;;;;;;;;;;5482410;26;20030;-49
2024/04/13 10:28:09;;;;;;;2.22;0.90;;;;;;;;;;5484285;26;20431;-50
2024/04/13 10:30:57;;;;;;;3.00;0.90;;;;;;;;;;5463774;26;20009;-52
2024/04/13 10:33:25;;;;;;;2.70;1.63;;;;;;;;;;5482395;26;19998;-52
2024/04/13 10:35:54;;;;;;;5.68;1.00;;;;;;;;;;5472543;26;20424;-57
2024/04/13 10:38:20;;;;;;;2.40;0.80;;;;;;;;;;5479298;26;19994;-60
2024/04/13 10:40:45;;;;;;;2.40;0.90;;;;;;;;;;5479080;26;19994;-57
2024/04/13 10:43:18;;;;;;;2.25;0.98;;;;;;;;;;5481928;26;20026;-59
2024/04/13 10:45:53;;;;;;;4.10;0.98;;;;;;;;;;5477367;26;19998;-57
2024/04/13 10:48:19;;;;;;;1.95;0.90;;;;;;;;;;5481171;26;20039;-50
2024/04/13 10:50:45;;;;;;;1.85;0.80;;;;;;;;;;5479773;26;20076;-52
2024/04/13 10:53:11;;;;;;;2.28;0.90;;;;;;;;;;5462351;26;19998;-54
2024/04/13 10:55:37;;;;;;;3.83;1.00;;;;;;;;;;5483209;26;20013;-56
2024/04/13 10:58:02;;;;;;;2.28;0.95;;;;;;;;;;5484109;26;20406;-56
2024/04/13 11:00:28;;;;;;;2.72;0.90;;;;;;;;;;5483397;26;20074;-61
2024/04/13 11:02:54;;;;;;;3.22;1.00;;;;;;;;;;5483661;26;20071;-59
2024/04/13 11:05:19;;;;;;;2.03;0.82;;;;;;;;;;5483143;26;20004;-59
2024/04/13 11:07:45;;;;;;;3.55;1.00;;;;;;;;;;5484147;26;19994;-60
2024/04/13 11:10:10;;;;;;;7.00;1.00;;;;;;;;;;5482006;26;20433;-58
2024/04/13 11:12:35;;;;;;;1.85;0.80;;;;;;;;;;5482831;26;20022;-51
2024/04/13 11:15:01;;;;;;;5.90;0.98;;;;;;;;;;5483651;26;19998;-51
2024/04/13 11:17:26;;;;;;;2.28;0.70;;;;;;;;;;5483576;26;20014;-49
2024/04/13 11:19:51;;;;;;;2.78;0.80;;;;;;;;;;5482773;26;20009;-52
2024/04/13 11:22:17;;;;;;;7.88;1.00;;;;;;;;;;5483039;26;20069;-50
2024/04/13 11:24:43;;;;;;;3.00;1.13;;;;;;;;;;5481954;26;19994;-52
2024/04/13 11:27:08;;;;;;;2.00;0.90;;;;;;;;;;5481738;26;20442;-51
2024/04/13 11:29:34;;;;;;;3.35;0.93;;;;;;;;;;5481732;26;20006;-50
2024/04/13 11:32:00;;;;;;;3.08;1.05;;;;;;;;;;5481466;26;20484;-52
2024/04/13 11:34:25;;;;;;;1.98;0.80;;;;;;;;;;5475728;26;20046;-51
2024/04/13 11:37:00;;;;;;;1.88;0.90;;;;;;;;;;5481983;26;20512;-49
2024/04/13 11:39:25;;;;;;;3.67;0.80;;;;;;;;;;5480895;26;19998;-51
2024/04/13 11:41:52;;;;;;;1.70;0.90;;;;;;;;;;5482717;26;20047;-49
2024/04/13 11:44:18;;;;;;;3.55;0.90;;;;;;;;;;5444518;26;19998;-59
2024/04/13 11:46:44;;;;;;;1.80;0.80;;;;;;;;;;5479766;26;19994;-60
2024/04/13 11:49:09;;;;;;;1.75;0.93;;;;;;;;;;5477330;26;20002;-59
2024/04/13 11:51:34;;;;;;;7.03;1.02;;;;;;;;;;5476749;26;20323;-59
2024/04/13 11:54:00;;;;;;;3.30;0.88;;;;;;;;;;5479568;26;20013;-57
2024/04/13 11:56:25;;;;;;;4.25;0.70;;;;;;;;;;5480160;26;19994;-58
2024/04/13 11:58:53;;;;;;;3.25;0.90;;;;;;;;;;5480744;26;20002;-51
2024/04/13 12:01:18;;;;;;;2.33;0.90;;;;;;;;;;5485543;26;20010;-51
2024/04/13 12:03:44;;;;;;;2.80;1.00;;;;;;;;;;5486878;26;19998;-50
2024/04/13 12:06:09;;;;;;;1.83;0.82;;;;;;;;;;5486608;26;20002;-52
2024/04/13 12:08:34;;;;;;;2.50;0.80;;;;;;;;;;5478585;26;20015;-53
2024/04/13 12:11:00;;;;;;;2.28;0.90;;;;;;;;;;5466346;26;20424;-54
2024/04/13 12:13:26;;;;;;;1.70;0.85;;;;;;;;;;5486306;26;19998;-54
2024/04/13 12:15:52;;;;;;;2.33;1.00;;;;;;;;;;5485864;26;19998;-48
2024/04/13 12:18:18;;;;;;;2.67;1.00;;;;;;;;;;5486577;26;20397;-55
2024/04/13 12:20:43;;;;;;;2.13;0.90;;;;;;;;;;5486621;26;20021;-49
2024/04/13 12:23:08;;;;;;;1.85;0.70;;;;;;;;;;5485226;26;20731;-52
2024/04/13 12:25:34;;;;;;;2.17;0.90;;;;;;;;;;5486463;26;20355;-51
2024/04/13 12:27:59;;;;;;;1.75;0.90;;;;;;;;;;5486775;26;20395;-48
2024/04/13 12:30:25;;;;;;;3.08;0.98;;;;;;;;;;5486054;26;20009;-53
2024/04/13 12:32:51;;;;;;;2.20;0.93;;;;;;;;;;5486305;26;19998;-52
2024/04/13 12:35:18;;;;;;;2.10;0.77;;;;;;;;;;5482363;26;19999;-51
2024/04/13 12:37:44;;;;;;;2.05;0.82;;;;;;;;;;5485911;26;20043;-51
2024/04/13 12:40:09;;;;;;;1.23;0.63;;;;;;;;;;5479940;26;19999;-52
2024/04/13 12:42:35;;;;;;;2.20;0.80;;;;;;;;;;5485915;26;19998;-49
2024/04/13 12:45:00;;;;;;;2.70;0.90;;;;;;;;;;5486086;26;19998;-48
2024/04/13 12:47:25;;;;;;;2.75;0.90;;;;;;;;;;5485268;26;20035;-52
2024/04/13 12:49:52;;;;;;;1.83;0.90;;;;;;;;;;5486215;26;19998;-49
2024/04/13 12:52:17;;;;;;;2.95;0.90;;;;;;;;;;5486205;26;19998;-50
2024/04/13 12:54:43;;;;;;;1.52;0.70;;;;;;;;;;5485168;26;20496;-49
2024/04/13 12:57:08;;;;;;;2.53;1.08;;;;;;;;;;5486190;26;20082;-48
2024/04/13 12:59:33;;;;;;;2.83;1.00;;;;;;;;;;5478089;26;20450;-51
2024/04/13 13:02:00;;;;;;;2.47;1.00;;;;;;;;;;5477019;26;19998;-58
2024/04/13 13:04:25;;;;;;;2.00;0.90;;;;;;;;;;5484479;26;20002;-61
2024/04/13 13:06:52;;;;;;;2.80;1.02;;;;;;;;;;5470097;26;20009;-63
2024/04/13 13:09:17;;;;;;;1.38;0.75;;;;;;;;;;5479646;26;20430;-58
2024/04/13 13:11:43;;;;;;;1.63;0.77;;;;;;;;;;5485008;26;19994;-60
2024/04/13 13:14:08;;;;;;;2.85;1.00;;;;;;;;;;5484734;26;20002;-62
2024/04/13 13:16:33;;;;;;;2.03;1.33;;;;;;;;;;5484083;26;19998;-58
2024/04/13 13:18:58;;;;;;;2.45;0.85;;;;;;;;;;5483391;26;20264;-61
2024/04/13 13:21:24;;;;;;;2.15;0.90;;;;;;;;;;5484949;26;20027;-58
2024/04/13 13:23:50;;;;;;;3.15;0.80;;;;;;;;;;5484960;26;20013;-59
2024/04/13 13:26:15;;;;;;;7.65;0.93;;;;;;;;;;5484632;26;20051;-50
2024/04/13 13:28:40;;;;;;;3.15;0.90;;;;;;;;;;5485454;26;20009;-49
2024/04/13 13:31:06;;;;;;;1.80;0.82;;;;;;;;;;5485609;26;19994;-49
2024/04/13 13:33:31;;;;;;;6.45;0.90;;;;;;;;;;5485396;26;20002;-49
2024/04/13 13:35:57;;;;;;;2.05;0.90;;;;;;;;;;5482579;26;20359;-52
2024/04/13 13:38:22;;;;;;;1.92;0.70;;;;;;;;;;5481616;26;19998;-51
2024/04/13 13:40:48;;;;;;;1.92;0.75;;;;;;;;;;5484940;26;20012;-52
2024/04/13 13:43:13;;;;;;;1.90;0.90;;;;;;;;;;5483170;26;20337;-50
2024/04/13 13:45:40;;;;;;;5.28;1.00;;;;;;;;;;5484878;26;19998;-53
2024/04/13 13:48:06;;;;;;;1.73;0.70;;;;;;;;;;5477858;26;19998;-49
2024/04/13 13:50:31;;;;;;;2.15;0.90;;;;;;;;;;5475371;26;20012;-50
2024/04/13 13:52:57;;;;;;;2.90;0.82;;;;;;;;;;5485319;26;20017;-51
2024/04/13 13:55:22;;;;;;;2.25;0.90;;;;;;;;;;5484391;26;20002;-51
2024/04/13 13:57:48;;;;;;;3.67;0.98;;;;;;;;;;5494022;26;20014;-52
2024/04/13 14:00:13;;;;;;;2.50;1.05;;;;;;;;;;5489716;26;19998;-48
2024/04/13 14:02:38;;;;;;;5.22;0.98;;;;;;;;;;5485011;26;20010;-53
2024/04/13 14:05:04;;;;;;;1.58;0.60;;;;;;;;;;5484277;26;20010;-52
2024/04/13 14:07:30;;;;;;;3.30;0.90;;;;;;;;;;5483948;26;20066;-52
2024/04/13 14:09:55;;;;;;;3.20;1.10;;;;;;;;;;5485264;26;19998;-48
2024/04/13 14:12:20;;;;;;;2.03;0.80;;;;;;;;;;5485090;26;20012;-51
2024/04/13 14:14:46;;;;;;;2.05;0.88;;;;;;;;;;5482644;26;20337;-50
2024/04/13 14:17:11;;;;;;;2.05;0.80;;;;;;;;;;5484288;26;20349;-48
2024/04/13 14:19:37;;;;;;;3.15;0.82;;;;;;;;;;5484657;26;20013;-52
2024/04/13 14:22:03;;;;;;;1.58;0.63;;;;;;;;;;5483581;26;20009;-52
2024/04/13 14:24:28;;;;;;;2.25;0.88;;;;;;;;;;5484551;26;20038;-48
2024/04/13 14:26:53;;;;;;;3.50;0.80;;;;;;;;;;5484459;26;20010;-51
2024/04/13 14:29:19;;;;;;;2.08;1.00;;;;;;;;;;5484025;26;20009;-49
2024/04/13 14:31:44;;;;;;;2.10;0.80;;;;;;;;;;5484408;26;20005;-48
2024/04/13 14:34:10;;;;;;;3.00;1.10;;;;;;;;;;5484044;26;20042;-52
2024/04/13 14:36:35;;;;;;;2.13;0.82;;;;;;;;;;5484252;26;20511;-51